CheckWX is a tool to help pilots better visualize weather data.  It is not intended as a substitute for an official pre-flight weather briefing.

05:36:53 UTC

KBAD TAF
Barksdale AFB Airport
Bossier City, Louisiana, USA
TAF KBAD 240200Z 2402/2508 25009KT 9999 SCT200 QNH2988INS TEMPO 2406/2409 24015G26KT BECMG 2411/2412 27012KT 9999 SKC QNH3015INS TX17/2421Z TN07/2412Z

Feb-24@
02:00 UTC

Feb-24 @ 02:00 UTC

Feb-24@
11:00 UTC

Feb-24 @ 11:00 UTC

TAF KBAD 240200Z 2402/2508 25009KT 9999 SCT200 QNH2988INS
Wind
  • 250° at 9 KTS
Cloud Levels
  • Scattered at 20,000' AGL

Feb-24@
06:00 UTC

Feb-24 @ 06:00 UTC

Feb-24@
09:00 UTC

Feb-24 @ 09:00 UTC

TEMPO 2406/2409 24015G26KT

Temporary

Temporary Changes expected for less than half the time period

Wind
  • 240° at 15 KTS
  • {Gusting to 26 KTS

Feb-24@
11:00 UTC

Feb-24 @ 11:00 UTC

Feb-25@
08:00 UTC

Feb-25 @ 08:00 UTC

BECMG 2411/2412 27012KT 9999 SKC QNH3015INS TX17/2421Z TN07/2412Z

Becoming

Becoming Conditions expected by Sun, Feb 24, 2019 @ 12:00 UTC

Wind
  • 270° at 12 KTS
Cloud Levels
  • Clear skies